Nearby METAR Reports

 

KMLE - Omaha/Millard, Nebraska, USA
Distance from station: NE 1mi, 2km
Updated: Mon, 21-Jan-2019 8:55pm CST
Overcast
Overcast
 Wind from ESE
Wind: ESE 14 mph , 22 km/h, Gust: 21 mph , 33 km/h
Temperature: 25°F , -4°C
Wind Chill: 13°F , -11°C
Dew Point: 18°F , -8°C
Humidity: 74%
Barometer: 29.83 inHg , 1010.2 hPa
Clouds: Overcast
Visibility: 10 miles , 16 km
Cloud details: Overcast 4800 ft
2019/01/22 02:55 KMLE 220255Z AUTO 12012G18KT 10SM OVC048 M04/M08 A2983 RMK AO2 T10431080
KOFF - Offutt Afb/Belle, Nebraska, USA
Distance from station: ESE 12mi, 20km
Updated: Mon, 21-Jan-2019 8:56pm CST
Overcast
Overcast
 Wind from E
Wind: E 17 mph , 28 km/h
Temperature: 23°F , -5°C
Wind Chill: 9°F , -13°C
Dew Point: 23°F , -5°C
Humidity: 100%
Barometer: 29.84 inHg , 1010.5 hPa
Clouds: Overcast
Visibility: 10 miles , 16 km
Cloud details: Overcast 5000 ft
2019/01/22 02:56 KOFF 220256Z 10015KT 10SM OVC050 M05/M05 A2984 RMK AO2A SLP127 T10521052 53001 $
 
KOMA - Omaha/Eppley, Nebraska, USA
Distance from station: NE 15mi, 24km
Updated: Mon, 21-Jan-2019 8:52pm CST
Overcast
Overcast
 Wind from SE
Wind: SE 16 mph , 26 km/h
Temperature: 23°F , -5°C
Wind Chill: 10°F , -12°C
Dew Point: 16°F , -9°C
Humidity: 74%
Barometer: 29.85 inHg , 1010.8 hPa
Clouds: Overcast
Visibility: 10 miles , 16 km
Cloud details: Partly cloudy 1900 ft
Overcast 4900 ft
2019/01/22 02:52 KOMA 220252Z 13014KT 10SM SCT019 OVC049 M05/M09 A2985 RMK AO2 PK WND 15026/0236 SLP125 T10501094 58001 $
KBTA - Blair Muni, Nebraska, USA
Distance from station: N 16mi, 25km
Updated: Mon, 21-Jan-2019 8:55pm CST
Overcast
Overcast
 Wind from ESE
Wind: ESE 20 mph , 31 km/h, Gust: 23 mph , 37 km/h
Temperature: 23°F , -5°C
Wind Chill: 8°F , -13°C
Dew Point: 18°F , -8°C
Humidity: 80%
Barometer: 29.81 inHg , 1009.5 hPa
Clouds: Overcast
Visibility: 10 miles , 16 km
Cloud details: Partly cloudy 1600 ft
Overcast 4100 ft
2019/01/22 02:55 KBTA 220255Z AUTO 11017G20KT 10SM SCT016 OVC041 M05/M08 A2981 RMK AO2 T10551081
 
KCBF - Council Bluffs, Iowa, USA
Distance from station: ENE 20mi, 32km
Updated: Mon, 21-Jan-2019 8:55pm CST
Overcast
Overcast
 Wind from ESE
Wind: ESE 16 mph , 26 km/h
Temperature: 21°F , -6°C
Wind Chill: 7°F , -14°C
Dew Point: 19°F , -7°C
Humidity: 93%
Barometer: 29.84 inHg , 1010.5 hPa
Clouds: Overcast
Visibility: 10 miles , 16 km
Cloud details: Overcast 4700 ft
2019/01/22 02:55 KCBF 220255Z AUTO 12014KT 10SM OVC047 M06/M07 A2984 RMK AO2
KPMV - Plattsmouth Muni, Nebraska, USA
Distance from station: SE 20mi, 32km
Updated: Mon, 21-Jan-2019 8:55pm CST
Overcast
Overcast
 Wind from ESE
Wind: ESE 17 mph , 28 km/h, Gust: 26 mph , 43 km/h
Temperature: 21°F , -6°C
Wind Chill: 7°F , -14°C
Dew Point: 18°F , -8°C
Humidity: 86%
Barometer: 29.82 inHg , 1009.8 hPa
Clouds: Overcast
Visibility: 10 miles , 16 km
Cloud details: Overcast 4900 ft
2019/01/22 02:55 KPMV 220255Z AUTO 11015G23KT 10SM OVC049 M06/M08 A2982 RMK AO2 T10571080
 
KAHQ - Wahoo, Nebraska, USA
Distance from station: W 25mi, 40km
Updated: Mon, 21-Jan-2019 8:55pm CST
Overcast
Overcast
 Wind from ESE
Wind: ESE 17 mph , 28 km/h
Temperature: 23°F , -5°C
Wind Chill: 9°F , -13°C
Dew Point: 18°F , -8°C
Humidity: 80%
Barometer: 29.80 inHg , 1009.1 hPa
Clouds: Overcast
Visibility: 10 miles , 16 km
Cloud details: Mostly cloudy 3800 ft
Overcast 4600 ft
2019/01/22 02:55 KAHQ 220255Z AUTO 11015KT 10SM BKN038 OVC046 M05/M08 A2980 RMK AO2 T10551076
KFET - Fremont Muni Arp, Nebraska, USA
Distance from station: NW 27mi, 43km
Updated: Mon, 21-Jan-2019 8:55pm CST
Overcast
Overcast
 Wind from ESE
Wind: ESE 14 mph , 22 km/h, Gust: 21 mph , 33 km/h
Temperature: 25°F , -4°C
Wind Chill: 13°F , -11°C
Dew Point: 18°F , -8°C
Humidity: 74%
Barometer: 29.81 inHg , 1009.5 hPa
Clouds: Overcast
Visibility: 10 miles , 16 km
Cloud details: Overcast 3900 ft
2019/01/22 02:55 KFET 220255Z AUTO 11012G18KT 10SM OVC039 M04/M08 A2981 RMK AO2 T10421076
 
KTQE - Tekamah, Nebraska, USA
Distance from station: N 40mi, 64km
Updated: Mon, 21-Jan-2019 8:54pm CST
Overcast
Overcast
 Wind from SE
Wind: SE 17 mph , 28 km/h, Gust: 26 mph , 43 km/h
Temperature: 21°F , -6°C
Wind Chill: 7°F , -14°C
Dew Point: 16°F , -9°C
Humidity: 80%
Barometer: 29.86 inHg , 1011.2 hPa
Clouds: Overcast
Visibility: 10 miles , 16 km
Cloud details: Overcast 3900 ft
2019/01/22 02:54 KTQE 220254Z AUTO 13015G23KT 10SM OVC039 M06/M09 A2986 RMK AO2 PK WND 13027/0219 SLP123 T10561094 50002 $
KLNK - Lincoln, Nebraska, USA
Distance from station: SW 41mi, 65km
Updated: Mon, 21-Jan-2019 8:54pm CST
Partly cloudy
Partly cloudy
 Wind from E
Wind: E 10 mph , 17 km/h
Temperature: 21°F , -6°C
Wind Chill: 10°F , -12°C
Dew Point: 18°F , -8°C
Humidity: 86%
Barometer: 29.79 inHg , 1008.8 hPa
Clouds: Partly cloudy
Visibility: 10 miles , 16 km
Cloud details: Partly cloudy 5000 ft
2019/01/22 02:54 KLNK 220254Z 10009KT 10SM SCT050 M06/M08 A2979 RMK AO2 SLP107 T10561083 50006
 
KAFK - Nebraska City, Nebraska, USA
Distance from station: SSE 43mi, 70km
Updated: Mon, 21-Jan-2019 8:55pm CST
Partly cloudy
Partly cloudy
 Wind from ESE
Wind: ESE 15 mph , 24 km/h, Gust: 23 mph , 37 km/h
Temperature: 21°F , -6°C
Wind Chill: 7°F , -14°C
Dew Point: 16°F , -9°C
Humidity: 80%
Barometer: 29.81 inHg , 1009.5 hPa
Clouds: Partly cloudy
Visibility: 10 miles , 16 km
Cloud details: Partly cloudy 5000 ft
2019/01/22 02:55 KAFK 220255Z AUTO 11013G20KT 10SM SCT050 M06/M09 A2981 RMK AO2 T10561089
KRDK - Red Oak, Iowa, USA
Distance from station: ESE 47mi, 75km
Updated: Mon, 21-Jan-2019 8:55pm CST
Overcast
Overcast
 Wind from ESE
Wind: ESE 13 mph , 20 km/h, Gust: 21 mph , 33 km/h
Temperature: 21°F , -6°C
Wind Chill: 8°F , -13°C
Dew Point: 18°F , -8°C
Humidity: 86%
Barometer: 29.88 inHg , 1011.9 hPa
Clouds: Overcast
Visibility: 10 miles , 16 km
Cloud details: Overcast 5000 ft
2019/01/22 02:55 KRDK 220255Z AUTO 12011G18KT 10SM OVC050 M06/M08 A2988 RMK AO2
 
KSDA - Shenandoah Muni, Iowa, USA
Distance from station: SE 48mi, 77km
Updated: Mon, 21-Jan-2019 8:55pm CST
Overcast
Overcast
 Wind from ESE
Wind: ESE 18 mph , 30 km/h
Temperature: 23°F , -5°C
Wind Chill: 9°F , -13°C
Dew Point: 18°F , -8°C
Humidity: 80%
Barometer: 29.86 inHg , 1011.2 hPa
Clouds: Overcast
Visibility: 10 miles , 16 km
Cloud details: Overcast 5500 ft
2019/01/22 02:55 KSDA 220255Z AUTO 11016KT 10SM OVC055 M05/M08 A2986 RMK AO2
KHNR - Harlan Muni, Iowa, USA
Distance from station: NE 49mi, 80km
Updated: Mon, 21-Jan-2019 8:55pm CST
Overcast
Overcast
 Wind from ESE
Wind: ESE 20 mph , 31 km/h
Temperature: 19°F , -7°C
Wind Chill: 3°F , -16°C
Dew Point: 16°F , -9°C
Humidity: 86%
Barometer: 29.88 inHg , 1011.9 hPa
Clouds: Overcast
Visibility: 10 miles , 16 km
Cloud details: Overcast 4600 ft
2019/01/22 02:55 KHNR 220255Z AUTO 12017KT 10SM OVC046 M07/M09 A2988 RMK AO2